EGXW/WTN METAR and TAF weather

Enter ICAO airport designator
Station Type Date Time Source
EGXW METAR 2021/09/28 03:50 UTC NOAA

EGXW 280350Z AUTO 20011KT 9999 FEW130/// 10/07 Q1015


Station Type Date Time Source
EGXW Decoded METAR 2021/09/28 03:50 UTC NOAA

Waddington, United Kingdom (EGXW) 53-10N 000-31W 0M
Sep 27, 2021 - 11:50 PM EDT / 2021.09.28 0350 UTC
Wind: from the SSW (200 degrees) at 13 MPH (11 KT):0
Visibility: greater than 7 mile(s):0
Sky conditions: mostly clear
Temperature: 50 F (10 C)
Dew Point: 44 F (7 C)
Relative Humidity: 81%
Pressure (altimeter): 29.97 in. Hg (1015 hPa)
ob: EGXW 280350Z AUTO 20011KT 9999 FEW130/// 10/07 Q1015
cycle: 4

Station Type Date Time Source
EGXW TAF 2021/09/28 06:33 UTC NOAA

TAF EGXW 280430Z 2806/2824 20012KT CAVOK
BECMG 2810/2813 18015G25KT PROB30
TEMPO 2814/2817 4000 SHRA SCT020CB
TEMPO 2817/2821 4000 RA BKN018 PROB40
TEMPO 2817/2821 3000 +RA SHGS BKN010 BKN020CB
BECMG 2820/2822 23010KT PROB30
TEMPO 2821/2823 7000 SHRA SCT015

Example: see airport list